Time;durP1;ratioP1;P1;durP2;ratioP2;P2;SDS_P1;SDS_P2;PMS_P1;PMS_P2;Temp;Humidity;BMP_temperature;BMP_pressure;BME280_temperature;BME280_humidity;BME280_pressure;Samples;Min_cycle;Max_cycle;Signal;HPM_P1;HPM_P2
2023/05/10 00:06:13;;;;;;;1.95;0.20;;;;;;;;;;20926048;28;20052;-63
2023/05/10 00:16:14;;;;;;;0.80;0.22;;;;;;;;;;20924066;28;20044;-64
2023/05/10 00:26:16;;;;;;;0.20;0.10;;;;;;;;;;20923657;28;20134;-64
2023/05/10 00:36:17;;;;;;;0.40;0.20;;;;;;;;;;20922797;28;20496;-63
2023/05/10 00:46:18;;;;;;;0.45;0.10;;;;;;;;;;20921743;28;20052;-63
2023/05/10 00:56:22;;;;;;;3.08;0.35;;;;;;;;;;20922319;28;20463;-64
2023/05/10 01:06:23;;;;;;;0.65;0.20;;;;;;;;;;20921538;28;20494;-63
2023/05/10 01:16:25;;;;;;;0.88;0.15;;;;;;;;;;20920645;28;20037;-63
2023/05/10 01:26:45;;;;;;;0.57;0.20;;;;;;;;;;20920420;28;20528;-63
2023/05/10 01:36:50;;;;;;;2.50;0.25;;;;;;;;;;20919011;28;20037;-63
2023/05/10 01:46:58;;;;;;;2.50;0.30;;;;;;;;;;20919346;28;20099;-63
2023/05/10 01:56:59;;;;;;;;;;;;;;;;;;20918021;28;20482;-63
2023/05/10 02:07:00;;;;;;;1.27;0.20;;;;;;;;;;20916821;28;19928;-63
2023/05/10 02:17:02;;;;;;;0.22;0.10;;;;;;;;;;20914499;28;20042;-63
2023/05/10 02:27:04;;;;;;;0.95;0.35;;;;;;;;;;20913972;28;20057;-63
2023/05/10 02:37:06;;;;;;;1.27;0.40;;;;;;;;;;20913615;28;20052;-63
2023/05/10 02:47:07;;;;;;;1.13;0.30;;;;;;;;;;20913033;28;20037;-63
2023/05/10 02:57:10;;;;;;;1.73;0.30;;;;;;;;;;20912395;28;20095;-63
2023/05/10 03:07:11;;;;;;;1.25;0.40;;;;;;;;;;20926605;28;20076;-63
2023/05/10 03:17:18;;;;;;;1.83;0.43;;;;;;;;;;20928501;28;20041;-63
2023/05/10 03:27:19;;;;;;;1.77;0.30;;;;;;;;;;20927286;28;20444;-63
2023/05/10 03:37:20;;;;;;;2.08;0.32;;;;;;;;;;20927717;28;20048;-63
2023/05/10 03:47:21;;;;;;;1.83;0.52;;;;;;;;;;20927575;28;20041;-63
2023/05/10 03:57:22;;;;;;;2.35;0.32;;;;;;;;;;20926961;28;20170;-63
2023/05/10 04:07:23;;;;;;;1.98;0.52;;;;;;;;;;20926195;28;20053;-64
2023/05/10 04:17:24;;;;;;;1.70;0.55;;;;;;;;;;20924311;28;20055;-63
2023/05/10 04:27:26;;;;;;;1.73;0.40;;;;;;;;;;20923333;28;20144;-63
2023/05/10 04:37:27;;;;;;;1.65;0.50;;;;;;;;;;20923729;28;20564;-63
2023/05/10 04:47:28;;;;;;;2.83;0.60;;;;;;;;;;20921892;28;20080;-63
2023/05/10 04:57:29;;;;;;;2.70;0.60;;;;;;;;;;20921011;28;20048;-62
2023/05/10 05:07:30;;;;;;;6.18;0.95;;;;;;;;;;20921422;28;20052;-63
2023/05/10 05:17:31;;;;;;;3.00;0.70;;;;;;;;;;20920660;28;20148;-64
2023/05/10 05:27:33;;;;;;;5.43;0.80;;;;;;;;;;20918452;28;20057;-62
2023/05/10 05:37:34;;;;;;;6.15;0.85;;;;;;;;;;20919015;28;20048;-64
2023/05/10 05:47:35;;;;;;;2.25;0.85;;;;;;;;;;20918380;28;20494;-63
2023/05/10 05:57:36;;;;;;;3.38;0.90;;;;;;;;;;20917472;28;20045;-63
2023/05/10 06:07:38;;;;;;;3.63;0.70;;;;;;;;;;20916821;28;20490;-65
2023/05/10 06:17:39;;;;;;;16.85;2.55;;;;;;;;;;20916024;28;20138;-63
2023/05/10 06:27:41;;;;;;;19.80;2.47;;;;;;;;;;20913940;28;20101;-62
2023/05/10 06:37:42;;;;;;;5.40;1.13;;;;;;;;;;20912488;28;20045;-62
2023/05/10 06:47:43;;;;;;;2.83;1.08;;;;;;;;;;20913019;28;20087;-64
2023/05/10 06:57:44;;;;;;;6.55;1.15;;;;;;;;;;20913322;28;20505;-63
2023/05/10 07:07:45;;;;;;;3.88;0.95;;;;;;;;;;20912032;28;20131;-63
2023/05/10 07:17:46;;;;;;;4.15;0.90;;;;;;;;;;20912612;28;20047;-63
2023/05/10 07:27:48;;;;;;;3.75;1.00;;;;;;;;;;20913108;28;20064;-64
2023/05/10 07:37:49;;;;;;;10.65;1.33;;;;;;;;;;20911196;28;20037;-63
2023/05/10 07:47:50;;;;;;;5.22;1.13;;;;;;;;;;20918178;28;20525;-64
2023/05/10 07:57:51;;;;;;;7.78;1.25;;;;;;;;;;20926398;28;20141;-64
2023/05/10 08:07:52;;;;;;;3.67;1.10;;;;;;;;;;20924319;28;20056;-65
2023/05/10 08:17:54;;;;;;;12.48;1.67;;;;;;;;;;20923619;28;20075;-62
2023/05/10 08:27:55;;;;;;;3.30;0.93;;;;;;;;;;20923169;28;20053;-65
2023/05/10 08:37:56;;;;;;;3.05;0.70;;;;;;;;;;20923718;28;20474;-61
2023/05/10 08:47:58;;;;;;;6.78;1.20;;;;;;;;;;20923027;28;20049;-65
2023/05/10 08:58:00;;;;;;;2.42;0.90;;;;;;;;;;20919430;28;20124;-65
2023/05/10 09:08:01;;;;;;;4.03;1.02;;;;;;;;;;20921188;28;20132;-64
2023/05/10 09:18:02;;;;;;;2.28;0.93;;;;;;;;;;20920454;28;20194;-63
2023/05/10 09:28:06;;;;;;;3.42;0.82;;;;;;;;;;20918054;28;20091;-67
2023/05/10 09:38:07;;;;;;;17.35;1.55;;;;;;;;;;20918357;28;20041;-70
2023/05/10 09:48:08;;;;;;;5.30;0.80;;;;;;;;;;20918007;28;20048;-64
2023/05/10 09:58:10;;;;;;;2.80;0.77;;;;;;;;;;20917374;28;20045;-64
2023/05/10 10:08:12;;;;;;;3.08;0.73;;;;;;;;;;20916380;28;20098;-64
2023/05/10 10:18:15;;;;;;;3.42;0.98;;;;;;;;;;20916022;28;20041;-64
2023/05/10 10:28:21;;;;;;;4.57;1.00;;;;;;;;;;20915446;28;20470;-64
2023/05/10 10:38:23;;;;;;;6.32;1.20;;;;;;;;;;20914548;28;20049;-65
2023/05/10 10:48:24;;;;;;;4.30;1.27;;;;;;;;;;20913021;28;20053;-64
2023/05/10 10:58:30;;;;;;;6.40;1.60;;;;;;;;;;20914135;28;20056;-63
2023/05/10 11:08:32;;;;;;;7.20;1.38;;;;;;;;;;20912769;28;20049;-63
2023/05/10 11:18:34;;;;;;;2.78;0.88;;;;;;;;;;20909942;28;20071;-64
2023/05/10 11:28:35;;;;;;;3.35;0.95;;;;;;;;;;20925373;28;20134;-64
2023/05/10 11:38:36;;;;;;;5.97;0.95;;;;;;;;;;20927232;28;20045;-64
2023/05/10 11:48:39;;;;;;;7.63;1.23;;;;;;;;;;20926248;28;20045;-64
2023/05/10 11:58:40;;;;;;;4.88;1.23;;;;;;;;;;20925503;28;20045;-64
2023/05/10 12:08:44;;;;;;;3.95;1.27;;;;;;;;;;20924981;28;20515;-64
2023/05/10 12:18:46;;;;;;;3.45;1.00;;;;;;;;;;20924065;28;20262;-64
2023/05/10 12:28:47;;;;;;;2.35;1.20;;;;;;;;;;20921854;28;20056;-64
2023/05/10 12:38:48;;;;;;;3.47;1.20;;;;;;;;;;20920740;28;20049;-64
2023/05/10 12:48:54;;;;;;;5.82;1.08;;;;;;;;;;20920294;28;20454;-63
2023/05/10 12:58:55;;;;;;;2.78;0.85;;;;;;;;;;20919317;28;20089;-64
2023/05/10 13:08:57;;;;;;;5.30;0.90;;;;;;;;;;20921338;28;20500;-63
2023/05/10 13:18:58;;;;;;;4.65;0.93;;;;;;;;;;20920933;28;20045;-64
2023/05/10 13:28:59;;;;;;;2.72;0.75;;;;;;;;;;20918366;28;20057;-63
2023/05/10 13:39:02;;;;;;;2.83;0.50;;;;;;;;;;20919013;28;20044;-64
2023/05/10 13:49:03;;;;;;;2.33;0.60;;;;;;;;;;20916584;28;20060;-63
2023/05/10 13:59:04;;;;;;;2.75;0.90;;;;;;;;;;20915956;28;20041;-64
2023/05/10 14:09:05;;;;;;;7.25;1.17;;;;;;;;;;20915469;28;20047;-64
2023/05/10 14:19:07;;;;;;;4.38;1.17;;;;;;;;;;20916470;28;20529;-67
2023/05/10 14:29:08;;;;;;;2.90;0.68;;;;;;;;;;20914748;28;20059;-64
2023/05/10 14:39:10;;;;;;;4.40;1.10;;;;;;;;;;20915041;28;20510;-65
2023/05/10 14:49:11;;;;;;;4.07;0.90;;;;;;;;;;20914574;28;20531;-66
2023/05/10 14:59:12;;;;;;;3.78;1.00;;;;;;;;;;20912029;28;20056;-66
2023/05/10 15:09:13;;;;;;;4.93;1.08;;;;;;;;;;20912345;28;20049;-65
2023/05/10 15:19:15;;;;;;;4.45;0.80;;;;;;;;;;20913076;28;20048;-65
2023/05/10 15:29:19;;;;;;;4.57;0.80;;;;;;;;;;20910372;28;20097;-68
2023/05/10 15:39:20;;;;;;;2.63;0.50;;;;;;;;;;20917955;28;20087;-70
2023/05/10 15:49:21;;;;;;;7.97;3.85;;;;;;;;;;20914574;28;20127;-73
2023/05/10 15:59:23;;;;;;;5.90;1.00;;;;;;;;;;20909386;28;20049;-74
2023/05/10 16:09:24;;;;;;;3.40;0.80;;;;;;;;;;20916173;28;20092;-65
2023/05/10 16:19:26;;;;;;;4.75;1.27;;;;;;;;;;20924228;28;20051;-64
2023/05/10 16:29:27;;;;;;;7.32;3.08;;;;;;;;;;20922772;28;20088;-64
2023/05/10 16:39:28;;;;;;;3.17;1.02;;;;;;;;;;20923226;28;20052;-63
2023/05/10 16:49:29;;;;;;;4.30;0.95;;;;;;;;;;20922841;28;20091;-64
2023/05/10 16:59:30;;;;;;;2.33;0.90;;;;;;;;;;20921673;28;20073;-62
2023/05/10 17:09:31;;;;;;;9.68;1.20;;;;;;;;;;20921371;28;20083;-67
2023/05/10 17:19:32;;;;;;;8.57;1.00;;;;;;;;;;20919774;28;20045;-68
2023/05/10 17:29:34;;;;;;;7.22;1.35;;;;;;;;;;20918524;28;20052;-64
2023/05/10 17:39:35;;;;;;;3.53;0.88;;;;;;;;;;20920684;28;20055;-63
2023/05/10 17:49:36;;;;;;;4.38;0.98;;;;;;;;;;20996063;28;20048;-62
2023/05/10 17:59:37;;;;;;;4.40;0.98;;;;;;;;;;21000487;28;20041;-65
2023/05/10 18:09:38;;;;;;;5.38;0.95;;;;;;;;;;20982027;28;20102;-65
2023/05/10 18:19:41;;;;;;;2.92;1.10;;;;;;;;;;20995020;28;20094;-64
2023/05/10 18:29:42;;;;;;;5.85;0.80;;;;;;;;;;20994041;28;20399;-61
2023/05/10 18:39:43;;;;;;;3.40;1.00;;;;;;;;;;20994341;28;20130;-61
2023/05/10 18:49:45;;;;;;;3.50;1.10;;;;;;;;;;20994994;28;20458;-58
2023/05/10 18:59:46;;;;;;;3.60;1.10;;;;;;;;;;20995307;28;20055;-61
2023/05/10 19:09:47;;;;;;;9.63;5.45;;;;;;;;;;20996393;28;20525;-63
2023/05/10 19:19:48;;;;;;;9.32;1.50;;;;;;;;;;20994335;28;20041;-61
2023/05/10 19:29:50;;;;;;;6.65;1.33;;;;;;;;;;20993237;28;20410;-58
2023/05/10 19:39:51;;;;;;;5.55;1.30;;;;;;;;;;20994836;28;20048;-60
2023/05/10 19:49:53;;;;;;;4.13;1.20;;;;;;;;;;21009504;28;20470;-69
2023/05/10 19:59:54;;;;;;;5.43;1.58;;;;;;;;;;21010123;28;20052;-71
2023/05/10 20:09:55;;;;;;;6.28;1.80;;;;;;;;;;21007630;28;20090;-64
2023/05/10 20:19:56;;;;;;;9.38;3.35;;;;;;;;;;21008485;28;20464;-65
2023/05/10 20:29:57;;;;;;;7.10;2.88;;;;;;;;;;21005934;28;20048;-65
2023/05/10 20:39:58;;;;;;;9.38;2.50;;;;;;;;;;21006536;28;20076;-66
2023/05/10 20:49:59;;;;;;;4.75;1.90;;;;;;;;;;21004184;28;20044;-64
2023/05/10 21:00:00;;;;;;;3.90;1.00;;;;;;;;;;21002998;28;20093;-65
2023/05/10 21:10:02;;;;;;;4.28;0.88;;;;;;;;;;21003837;28;20478;-65
2023/05/10 21:20:03;;;;;;;5.97;1.33;;;;;;;;;;21002711;28;20040;-65
2023/05/10 21:30:04;;;;;;;4.55;0.98;;;;;;;;;;21003759;28;20175;-65
2023/05/10 21:40:05;;;;;;;3.03;0.82;;;;;;;;;;21000127;28;20055;-65
2023/05/10 21:50:09;;;;;;;2.92;0.88;;;;;;;;;;20999118;28;20041;-66
2023/05/10 22:00:10;;;;;;;5.32;1.02;;;;;;;;;;20999782;28;20355;-65
2023/05/10 22:10:11;;;;;;;3.05;0.90;;;;;;;;;;20999518;28;20541;-66
2023/05/10 22:20:13;;;;;;;4.72;1.05;;;;;;;;;;20997832;28;20059;-66
2023/05/10 22:30:14;;;;;;;5.22;1.55;;;;;;;;;;20998981;28;20048;-66
2023/05/10 22:40:15;;;;;;;2.72;1.05;;;;;;;;;;20995727;28;20045;-65
2023/05/10 22:50:17;;;;;;;4.35;0.77;;;;;;;;;;20996387;28;20052;-65
2023/05/10 23:00:18;;;;;;;5.45;0.88;;;;;;;;;;20994739;28;20150;-65
2023/05/10 23:10:20;;;;;;;3.30;0.63;;;;;;;;;;20994491;28;20104;-65
2023/05/10 23:20:21;;;;;;;4.55;0.73;;;;;;;;;;21003215;28;20139;-64
2023/05/10 23:30:22;;;;;;;3.13;0.50;;;;;;;;;;21011083;28;20060;-64
2023/05/10 23:40:23;;;;;;;3.95;0.52;;;;;;;;;;21009923;28;20115;-64
2023/05/10 23:50:24;;;;;;;2.40;0.50;;;;;;;;;;21009203;28;20152;-64
